Disclaimer

Please do not use the information listed here in-flight or in-navigation, as they are not provided to us by the airports but are provided by volunteers, so they might be outdated.

Search


Regions


Airport information page

Radio informations:
BRISBANE FIS - 3476 MHz
Common traffic adv. frequency (CTAF) - 118.1 MHz

Airport informations:
Latitude: 12° 11' 18.00" S
Longitude: 096° 50' 02.00" E
Elevation: 10 feet - 3 meters
Operating hours: N/A
Operating agency: Civil government, landing fees and diplomatic clearance may be required
Timezone: UTC+6:30
Fuel: Jet A1, without icing nhibitor.

Runway information:
15/33 - 7999 x 148 feet< - >2438 x 45 meters

Recent METARs:
YPCC 181600Z AUTO 11007KT 9999 // BKN057 26/22 Q1015
YPCC 181700Z AUTO 10007KT 9999 // SCT053 26/22 Q1014
YPCC 181700Z AUTO 10007KT 9999 // SCT053 26/22 Q1014

Airport on the map: